sensor_id;sensor_type;location;lat;lon;timestamp;temperature;humidity
21580;DHT22;10951;59.656;9.666;2022-11-23T00:03:45;0.90;99.90
21580;DHT22;10951;59.656;9.666;2022-11-23T00:06:13;0.90;99.90
21580;DHT22;10951;59.656;9.666;2022-11-23T00:08:40;0.90;99.90
21580;DHT22;10951;59.656;9.666;2022-11-23T00:11:07;0.90;99.90
21580;DHT22;10951;59.656;9.666;2022-11-23T00:13:34;0.90;99.90
21580;DHT22;10951;59.656;9.666;2022-11-23T00:16:16;1.00;99.90
21580;DHT22;10951;59.656;9.666;2022-11-23T00:18:44;1.00;99.90
21580;DHT22;10951;59.656;9.666;2022-11-23T00:21:15;1.00;99.90
21580;DHT22;10951;59.656;9.666;2022-11-23T00:23:43;1.00;99.90
21580;DHT22;10951;59.656;9.666;2022-11-23T00:26:11;0.90;99.90
21580;DHT22;10951;59.656;9.666;2022-11-23T00:28:38;0.90;99.90
21580;DHT22;10951;59.656;9.666;2022-11-23T00:31:09;1.00;99.90
21580;DHT22;10951;59.656;9.666;2022-11-23T00:33:36;1.00;99.90
21580;DHT22;10951;59.656;9.666;2022-11-23T00:36:11;1.00;99.90
21580;DHT22;10951;59.656;9.666;2022-11-23T00:38:39;1.00;99.90
21580;DHT22;10951;59.656;9.666;2022-11-23T00:41:11;1.00;99.90
21580;DHT22;10951;59.656;9.666;2022-11-23T00:43:39;1.00;99.90
21580;DHT22;10951;59.656;9.666;2022-11-23T00:46:16;1.00;99.90
21580;DHT22;10951;59.656;9.666;2022-11-23T00:48:46;1.00;99.90
21580;DHT22;10951;59.656;9.666;2022-11-23T00:51:15;1.00;99.90
21580;DHT22;10951;59.656;9.666;2022-11-23T00:53:43;1.00;99.90
21580;DHT22;10951;59.656;9.666;2022-11-23T00:56:10;1.00;99.90
21580;DHT22;10951;59.656;9.666;2022-11-23T00:58:38;1.00;99.90
21580;DHT22;10951;59.656;9.666;2022-11-23T01:01:09;1.00;99.90
21580;DHT22;10951;59.656;9.666;2022-11-23T01:03:39;1.00;99.90
21580;DHT22;10951;59.656;9.666;2022-11-23T01:06:14;1.00;99.90
21580;DHT22;10951;59.656;9.666;2022-11-23T01:08:49;1.00;99.90
21580;DHT22;10951;59.656;9.666;2022-11-23T01:11:17;1.00;99.90
21580;DHT22;10951;59.656;9.666;2022-11-23T01:13:45;1.00;99.90
21580;DHT22;10951;59.656;9.666;2022-11-23T01:16:20;1.00;99.90
21580;DHT22;10951;59.656;9.666;2022-11-23T01:18:58;1.00;99.90
21580;DHT22;10951;59.656;9.666;2022-11-23T01:21:26;1.00;99.90
21580;DHT22;10951;59.656;9.666;2022-11-23T01:23:54;1.00;99.90
21580;DHT22;10951;59.656;9.666;2022-11-23T01:26:21;1.00;99.90
21580;DHT22;10951;59.656;9.666;2022-11-23T01:28:49;1.10;99.90
21580;DHT22;10951;59.656;9.666;2022-11-23T01:31:18;1.00;99.90
21580;DHT22;10951;59.656;9.666;2022-11-23T01:33:46;1.00;99.90
21580;DHT22;10951;59.656;9.666;2022-11-23T01:36:19;1.00;99.90
21580;DHT22;10951;59.656;9.666;2022-11-23T01:38:47;1.00;99.90
21580;DHT22;10951;59.656;9.666;2022-11-23T01:41:38;1.00;99.90
21580;DHT22;10951;59.656;9.666;2022-11-23T01:44:24;1.00;99.90
21580;DHT22;10951;59.656;9.666;2022-11-23T01:46:53;1.00;99.90
21580;DHT22;10951;59.656;9.666;2022-11-23T01:49:20;1.00;99.90
21580;DHT22;10951;59.656;9.666;2022-11-23T01:51:49;1.00;99.90
21580;DHT22;10951;59.656;9.666;2022-11-23T01:54:37;0.90;99.90
21580;DHT22;10951;59.656;9.666;2022-11-23T01:57:14;0.90;99.90
21580;DHT22;10951;59.656;9.666;2022-11-23T01:59:43;0.90;99.90
21580;DHT22;10951;59.656;9.666;2022-11-23T02:02:11;1.00;99.90
21580;DHT22;10951;59.656;9.666;2022-11-23T02:04:42;1.00;99.90
21580;DHT22;10951;59.656;9.666;2022-11-23T02:07:14;1.00;99.90
21580;DHT22;10951;59.656;9.666;2022-11-23T02:09:44;1.00;99.90
21580;DHT22;10951;59.656;9.666;2022-11-23T02:12:12;1.10;99.90
21580;DHT22;10951;59.656;9.666;2022-11-23T02:14:42;1.10;99.90
21580;DHT22;10951;59.656;9.666;2022-11-23T02:17:09;1.00;99.90
21580;DHT22;10951;59.656;9.666;2022-11-23T02:25:26;1.00;99.90
21580;DHT22;10951;59.656;9.666;2022-11-23T02:27:54;1.10;99.90
21580;DHT22;10951;59.656;9.666;2022-11-23T02:30:21;1.10;99.90
21580;DHT22;10951;59.656;9.666;2022-11-23T02:32:52;1.10;99.90
21580;DHT22;10951;59.656;9.666;2022-11-23T02:35:19;1.10;99.90
21580;DHT22;10951;59.656;9.666;2022-11-23T02:37:46;1.10;99.90
21580;DHT22;10951;59.656;9.666;2022-11-23T02:40:28;1.10;99.90
21580;DHT22;10951;59.656;9.666;2022-11-23T02:42:57;1.10;99.90
21580;DHT22;10951;59.656;9.666;2022-11-23T02:45:32;1.10;99.90
21580;DHT22;10951;59.656;9.666;2022-11-23T02:48:00;1.10;99.90
21580;DHT22;10951;59.656;9.666;2022-11-23T02:50:45;1.10;99.90
21580;DHT22;10951;59.656;9.666;2022-11-23T02:53:12;1.10;99.90
21580;DHT22;10951;59.656;9.666;2022-11-23T02:55:39;1.10;99.90
21580;DHT22;10951;59.656;9.666;2022-11-23T02:58:07;1.10;99.90
21580;DHT22;10951;59.656;9.666;2022-11-23T03:00:35;1.10;99.90
21580;DHT22;10951;59.656;9.666;2022-11-23T03:03:02;1.10;99.90
21580;DHT22;10951;59.656;9.666;2022-11-23T03:05:29;1.10;99.90
21580;DHT22;10951;59.656;9.666;2022-11-23T03:07:56;1.10;99.90
21580;DHT22;10951;59.656;9.666;2022-11-23T03:10:24;1.10;99.90
21580;DHT22;10951;59.656;9.666;2022-11-23T03:12:54;1.10;99.90
21580;DHT22;10951;59.656;9.666;2022-11-23T03:15:22;1.10;99.90
21580;DHT22;10951;59.656;9.666;2022-11-23T03:17:49;1.20;99.90
21580;DHT22;10951;59.656;9.666;2022-11-23T03:20:18;1.20;99.90
21580;DHT22;10951;59.656;9.666;2022-11-23T03:22:48;1.20;99.90
21580;DHT22;10951;59.656;9.666;2022-11-23T03:25:17;1.20;99.90
21580;DHT22;10951;59.656;9.666;2022-11-23T03:27:46;1.20;99.90
21580;DHT22;10951;59.656;9.666;2022-11-23T03:30:14;1.10;99.90
21580;DHT22;10951;59.656;9.666;2022-11-23T03:32:41;1.10;99.90
21580;DHT22;10951;59.656;9.666;2022-11-23T03:35:08;1.10;99.90
21580;DHT22;10951;59.656;9.666;2022-11-23T03:37:48;1.20;99.90
21580;DHT22;10951;59.656;9.666;2022-11-23T03:40:15;1.20;99.90
21580;DHT22;10951;59.656;9.666;2022-11-23T03:43:02;1.10;99.90
21580;DHT22;10951;59.656;9.666;2022-11-23T03:45:30;1.10;99.90
21580;DHT22;10951;59.656;9.666;2022-11-23T03:47:57;1.10;99.90
21580;DHT22;10951;59.656;9.666;2022-11-23T03:50:24;1.10;99.90
21580;DHT22;10951;59.656;9.666;2022-11-23T03:52:51;1.10;99.90
21580;DHT22;10951;59.656;9.666;2022-11-23T03:55:18;1.10;99.90
21580;DHT22;10951;59.656;9.666;2022-11-23T03:57:47;1.20;99.90
21580;DHT22;10951;59.656;9.666;2022-11-23T04:00:15;1.10;99.90
21580;DHT22;10951;59.656;9.666;2022-11-23T04:02:44;1.10;99.90
21580;DHT22;10951;59.656;9.666;2022-11-23T04:05:31;1.10;99.90
21580;DHT22;10951;59.656;9.666;2022-11-23T04:08:30;1.00;99.90
21580;DHT22;10951;59.656;9.666;2022-11-23T04:10:58;1.10;99.90
21580;DHT22;10951;59.656;9.666;2022-11-23T04:13:46;1.10;99.90
21580;DHT22;10951;59.656;9.666;2022-11-23T04:16:13;1.10;99.90
21580;DHT22;10951;59.656;9.666;2022-11-23T04:18:40;1.20;99.90
21580;DHT22;10951;59.656;9.666;2022-11-23T04:21:09;1.10;99.90
21580;DHT22;10951;59.656;9.666;2022-11-23T04:23:36;1.10;99.90
21580;DHT22;10951;59.656;9.666;2022-11-23T04:26:07;1.10;99.90
21580;DHT22;10951;59.656;9.666;2022-11-23T04:28:38;1.10;99.90
21580;DHT22;10951;59.656;9.666;2022-11-23T04:31:06;1.10;99.90
21580;DHT22;10951;59.656;9.666;2022-11-23T04:33:43;1.20;99.90
21580;DHT22;10951;59.656;9.666;2022-11-23T04:36:11;1.20;99.90
21580;DHT22;10951;59.656;9.666;2022-11-23T04:38:38;1.20;99.90
21580;DHT22;10951;59.656;9.666;2022-11-23T04:41:05;1.20;99.90
21580;DHT22;10951;59.656;9.666;2022-11-23T04:43:32;1.20;99.90
21580;DHT22;10951;59.656;9.666;2022-11-23T04:45:59;1.10;99.90
21580;DHT22;10951;59.656;9.666;2022-11-23T04:48:28;1.20;99.90
21580;DHT22;10951;59.656;9.666;2022-11-23T04:50:57;1.20;99.90
21580;DHT22;10951;59.656;9.666;2022-11-23T04:53:33;1.20;99.90
21580;DHT22;10951;59.656;9.666;2022-11-23T04:56:00;1.20;99.90
21580;DHT22;10951;59.656;9.666;2022-11-23T04:58:31;1.20;99.90
21580;DHT22;10951;59.656;9.666;2022-11-23T05:01:00;1.20;99.90
21580;DHT22;10951;59.656;9.666;2022-11-23T05:03:29;1.10;99.90
21580;DHT22;10951;59.656;9.666;2022-11-23T05:05:58;1.10;99.90
21580;DHT22;10951;59.656;9.666;2022-11-23T05:08:31;1.10;99.90
21580;DHT22;10951;59.656;9.666;2022-11-23T05:11:13;1.20;99.90
21580;DHT22;10951;59.656;9.666;2022-11-23T05:13:41;1.10;99.90
21580;DHT22;10951;59.656;9.666;2022-11-23T05:16:08;1.10;99.90
21580;DHT22;10951;59.656;9.666;2022-11-23T05:18:37;1.10;99.90
21580;DHT22;10951;59.656;9.666;2022-11-23T05:21:04;1.10;99.90
21580;DHT22;10951;59.656;9.666;2022-11-23T05:23:31;1.10;99.90
21580;DHT22;10951;59.656;9.666;2022-11-23T05:25:58;1.10;99.90
21580;DHT22;10951;59.656;9.666;2022-11-23T05:28:25;1.20;99.90
21580;DHT22;10951;59.656;9.666;2022-11-23T05:31:12;1.10;99.90
21580;DHT22;10951;59.656;9.666;2022-11-23T05:33:41;1.10;99.90
21580;DHT22;10951;59.656;9.666;2022-11-23T05:36:08;1.10;99.90
21580;DHT22;10951;59.656;9.666;2022-11-23T05:38:40;1.10;99.90
21580;DHT22;10951;59.656;9.666;2022-11-23T05:41:13;1.20;99.90
21580;DHT22;10951;59.656;9.666;2022-11-23T05:43:42;1.20;99.90
21580;DHT22;10951;59.656;9.666;2022-11-23T05:46:14;1.20;99.90
21580;DHT22;10951;59.656;9.666;2022-11-23T05:48:41;1.20;99.90
21580;DHT22;10951;59.656;9.666;2022-11-23T05:51:09;1.20;99.90
21580;DHT22;10951;59.656;9.666;2022-11-23T05:53:42;1.10;99.90
21580;DHT22;10951;59.656;9.666;2022-11-23T05:56:18;1.10;99.90
21580;DHT22;10951;59.656;9.666;2022-11-23T05:59:02;1.20;99.90
21580;DHT22;10951;59.656;9.666;2022-11-23T06:01:34;1.10;99.90
21580;DHT22;10951;59.656;9.666;2022-11-23T06:04:02;1.20;99.90
21580;DHT22;10951;59.656;9.666;2022-11-23T06:06:37;1.10;99.90
21580;DHT22;10951;59.656;9.666;2022-11-23T06:09:04;1.10;99.90
21580;DHT22;10951;59.656;9.666;2022-11-23T06:11:33;1.10;99.90
21580;DHT22;10951;59.656;9.666;2022-11-23T06:14:07;1.10;99.90
21580;DHT22;10951;59.656;9.666;2022-11-23T06:16:41;1.10;99.90
21580;DHT22;10951;59.656;9.666;2022-11-23T06:19:28;1.20;99.90
21580;DHT22;10951;59.656;9.666;2022-11-23T06:21:57;1.20;99.90
21580;DHT22;10951;59.656;9.666;2022-11-23T06:24:25;1.10;99.90
21580;DHT22;10951;59.656;9.666;2022-11-23T06:27:11;1.10;99.90
21580;DHT22;10951;59.656;9.666;2022-11-23T06:29:45;1.20;99.90
21580;DHT22;10951;59.656;9.666;2022-11-23T06:32:13;1.20;99.90
21580;DHT22;10951;59.656;9.666;2022-11-23T06:34:41;1.20;99.90
21580;DHT22;10951;59.656;9.666;2022-11-23T06:37:08;1.20;99.90
21580;DHT22;10951;59.656;9.666;2022-11-23T06:39:35;1.10;99.90
21580;DHT22;10951;59.656;9.666;2022-11-23T06:42:04;1.10;99.90
21580;DHT22;10951;59.656;9.666;2022-11-23T06:44:51;1.10;99.90
21580;DHT22;10951;59.656;9.666;2022-11-23T06:47:19;1.10;99.90
21580;DHT22;10951;59.656;9.666;2022-11-23T06:49:52;1.20;99.90
21580;DHT22;10951;59.656;9.666;2022-11-23T06:52:25;1.20;99.90
21580;DHT22;10951;59.656;9.666;2022-11-23T06:54:52;1.20;99.90
21580;DHT22;10951;59.656;9.666;2022-11-23T06:57:21;1.30;99.90
21580;DHT22;10951;59.656;9.666;2022-11-23T06:59:48;1.30;99.90
21580;DHT22;10951;59.656;9.666;2022-11-23T07:02:20;1.30;99.90
21580;DHT22;10951;59.656;9.666;2022-11-23T07:04:50;1.30;99.90
21580;DHT22;10951;59.656;9.666;2022-11-23T07:07:19;1.30;99.90
21580;DHT22;10951;59.656;9.666;2022-11-23T07:09:54;1.30;99.90
21580;DHT22;10951;59.656;9.666;2022-11-23T07:12:41;1.20;99.90
21580;DHT22;10951;59.656;9.666;2022-11-23T07:15:09;1.30;99.90
21580;DHT22;10951;59.656;9.666;2022-11-23T07:17:39;1.30;99.90
21580;DHT22;10951;59.656;9.666;2022-11-23T07:20:09;1.30;99.90
21580;DHT22;10951;59.656;9.666;2022-11-23T07:22:37;1.30;99.90
21580;DHT22;10951;59.656;9.666;2022-11-23T07:25:05;1.30;99.90
21580;DHT22;10951;59.656;9.666;2022-11-23T07:27:32;1.30;99.90
21580;DHT22;10951;59.656;9.666;2022-11-23T07:30:00;1.30;99.90
21580;DHT22;10951;59.656;9.666;2022-11-23T07:32:27;1.30;99.90
21580;DHT22;10951;59.656;9.666;2022-11-23T07:34:54;1.30;99.90
21580;DHT22;10951;59.656;9.666;2022-11-23T07:37:21;1.30;99.90
21580;DHT22;10951;59.656;9.666;2022-11-23T07:39:48;1.30;99.90
21580;DHT22;10951;59.656;9.666;2022-11-23T07:42:25;1.30;99.90
21580;DHT22;10951;59.656;9.666;2022-11-23T07:45:09;1.30;99.90
21580;DHT22;10951;59.656;9.666;2022-11-23T07:47:39;1.30;99.90
21580;DHT22;10951;59.656;9.666;2022-11-23T07:50:07;1.30;99.90
21580;DHT22;10951;59.656;9.666;2022-11-23T07:52:36;1.30;99.90
21580;DHT22;10951;59.656;9.666;2022-11-23T07:55:04;1.30;99.90
21580;DHT22;10951;59.656;9.666;2022-11-23T07:57:31;1.30;99.90
21580;DHT22;10951;59.656;9.666;2022-11-23T07:59:58;1.30;99.90
21580;DHT22;10951;59.656;9.666;2022-11-23T08:02:25;1.30;99.90
21580;DHT22;10951;59.656;9.666;2022-11-23T08:04:52;1.40;99.90
21580;DHT22;10951;59.656;9.666;2022-11-23T08:07:21;1.40;99.90
21580;DHT22;10951;59.656;9.666;2022-11-23T08:09:48;1.40;99.90
21580;DHT22;10951;59.656;9.666;2022-11-23T08:12:15;1.40;99.90
21580;DHT22;10951;59.656;9.666;2022-11-23T08:14:42;1.30;99.90
21580;DHT22;10951;59.656;9.666;2022-11-23T08:17:09;1.40;99.90
21580;DHT22;10951;59.656;9.666;2022-11-23T08:19:36;1.40;99.90
21580;DHT22;10951;59.656;9.666;2022-11-23T08:22:03;1.40;99.90
21580;DHT22;10951;59.656;9.666;2022-11-23T08:24:30;1.40;99.90
21580;DHT22;10951;59.656;9.666;2022-11-23T08:26:57;1.40;99.90
21580;DHT22;10951;59.656;9.666;2022-11-23T08:29:25;1.50;99.90
21580;DHT22;10951;59.656;9.666;2022-11-23T08:31:51;1.50;99.90
21580;DHT22;10951;59.656;9.666;2022-11-23T08:34:18;1.50;99.90
21580;DHT22;10951;59.656;9.666;2022-11-23T08:36:45;1.40;99.90
21580;DHT22;10951;59.656;9.666;2022-11-23T08:39:13;1.50;99.90
21580;DHT22;10951;59.656;9.666;2022-11-23T08:41:41;1.50;99.90
21580;DHT22;10951;59.656;9.666;2022-11-23T08:44:08;1.50;99.90
21580;DHT22;10951;59.656;9.666;2022-11-23T08:46:37;1.50;99.90
21580;DHT22;10951;59.656;9.666;2022-11-23T08:49:05;1.50;99.90
21580;DHT22;10951;59.656;9.666;2022-11-23T08:51:32;1.40;99.90
21580;DHT22;10951;59.656;9.666;2022-11-23T08:53:59;1.40;99.90
21580;DHT22;10951;59.656;9.666;2022-11-23T08:56:26;1.40;99.90
21580;DHT22;10951;59.656;9.666;2022-11-23T08:58:53;1.50;99.90
21580;DHT22;10951;59.656;9.666;2022-11-23T09:01:20;1.40;99.90
21580;DHT22;10951;59.656;9.666;2022-11-23T09:03:47;1.50;99.90
21580;DHT22;10951;59.656;9.666;2022-11-23T09:06:14;1.50;99.90
21580;DHT22;10951;59.656;9.666;2022-11-23T09:08:41;1.40;99.90
21580;DHT22;10951;59.656;9.666;2022-11-23T09:11:11;1.40;99.90
21580;DHT22;10951;59.656;9.666;2022-11-23T09:13:39;1.50;99.90
21580;DHT22;10951;59.656;9.666;2022-11-23T09:16:07;1.50;99.90
21580;DHT22;10951;59.656;9.666;2022-11-23T09:18:34;1.50;99.90
21580;DHT22;10951;59.656;9.666;2022-11-23T09:21:04;1.50;99.90
21580;DHT22;10951;59.656;9.666;2022-11-23T09:23:31;1.50;99.90
21580;DHT22;10951;59.656;9.666;2022-11-23T09:26:02;1.60;99.90
21580;DHT22;10951;59.656;9.666;2022-11-23T09:28:30;1.60;99.90
21580;DHT22;10951;59.656;9.666;2022-11-23T09:30:57;1.60;99.90
21580;DHT22;10951;59.656;9.666;2022-11-23T09:33:25;1.70;99.90
21580;DHT22;10951;59.656;9.666;2022-11-23T09:35:59;1.70;99.90
21580;DHT22;10951;59.656;9.666;2022-11-23T09:38:27;1.70;99.90
21580;DHT22;10951;59.656;9.666;2022-11-23T09:52:19;1.70;99.90
21580;DHT22;10951;59.656;9.666;2022-11-23T09:54:47;1.70;99.90
21580;DHT22;10951;59.656;9.666;2022-11-23T09:57:21;1.70;99.90
21580;DHT22;10951;59.656;9.666;2022-11-23T10:00:28;1.70;99.90
21580;DHT22;10951;59.656;9.666;2022-11-23T10:02:53;1.60;99.90
21580;DHT22;10951;59.656;9.666;2022-11-23T10:05:22;1.60;99.90
21580;DHT22;10951;59.656;9.666;2022-11-23T10:13:47;1.70;99.90
21580;DHT22;10951;59.656;9.666;2022-11-23T10:19:28;1.70;99.90
21580;DHT22;10951;59.656;9.666;2022-11-23T10:24:46;1.70;99.90
21580;DHT22;10951;59.656;9.666;2022-11-23T10:27:20;1.70;99.90
21580;DHT22;10951;59.656;9.666;2022-11-23T10:29:48;1.70;99.90
21580;DHT22;10951;59.656;9.666;2022-11-23T10:32:27;1.70;99.90
21580;DHT22;10951;59.656;9.666;2022-11-23T10:35:01;1.80;99.90
21580;DHT22;10951;59.656;9.666;2022-11-23T10:37:31;1.70;99.90
21580;DHT22;10951;59.656;9.666;2022-11-23T10:39:58;1.70;99.90
21580;DHT22;10951;59.656;9.666;2022-11-23T10:42:37;1.70;99.90
21580;DHT22;10951;59.656;9.666;2022-11-23T10:45:18;1.70;99.90
21580;DHT22;10951;59.656;9.666;2022-11-23T10:47:53;1.70;99.90
21580;DHT22;10951;59.656;9.666;2022-11-23T10:50:31;1.80;99.90
21580;DHT22;10951;59.656;9.666;2022-11-23T10:53:22;1.80;99.90
21580;DHT22;10951;59.656;9.666;2022-11-23T10:55:53;1.90;99.90
21580;DHT22;10951;59.656;9.666;2022-11-23T10:58:30;1.80;99.90
21580;DHT22;10951;59.656;9.666;2022-11-23T11:01:06;1.80;99.90
21580;DHT22;10951;59.656;9.666;2022-11-23T11:03:35;1.80;99.90
21580;DHT22;10951;59.656;9.666;2022-11-23T11:06:02;1.80;99.90
21580;DHT22;10951;59.656;9.666;2022-11-23T11:08:50;1.90;99.90
21580;DHT22;10951;59.656;9.666;2022-11-23T11:11:26;1.80;99.90
21580;DHT22;10951;59.656;9.666;2022-11-23T11:16:52;1.70;99.90
21580;DHT22;10951;59.656;9.666;2022-11-23T11:21:56;1.70;99.90
21580;DHT22;10951;59.656;9.666;2022-11-23T11:24:36;1.60;99.90
21580;DHT22;10951;59.656;9.666;2022-11-23T11:27:10;1.50;99.90
21580;DHT22;10951;59.656;9.666;2022-11-23T11:29:46;1.50;99.90
21580;DHT22;10951;59.656;9.666;2022-11-23T11:37:48;1.50;99.90
21580;DHT22;10951;59.656;9.666;2022-11-23T11:43:10;1.50;99.90
21580;DHT22;10951;59.656;9.666;2022-11-23T11:45:43;1.60;99.90
21580;DHT22;10951;59.656;9.666;2022-11-23T11:48:53;1.60;99.90
21580;DHT22;10951;59.656;9.666;2022-11-23T11:51:25;1.60;99.90
21580;DHT22;10951;59.656;9.666;2022-11-23T11:56:53;1.70;99.90
21580;DHT22;10951;59.656;9.666;2022-11-23T11:59:28;1.70;99.90
21580;DHT22;10951;59.656;9.666;2022-11-23T12:02:29;1.70;99.90
21580;DHT22;10951;59.656;9.666;2022-11-23T12:08:14;1.70;99.90
21580;DHT22;10951;59.656;9.666;2022-11-23T12:10:54;1.70;99.90
21580;DHT22;10951;59.656;9.666;2022-11-23T12:13:33;1.70;99.90
21580;DHT22;10951;59.656;9.666;2022-11-23T12:30:52;1.70;99.90
21580;DHT22;10951;59.656;9.666;2022-11-23T12:33:51;1.70;99.90
21580;DHT22;10951;59.656;9.666;2022-11-23T12:39:41;1.70;99.90
21580;DHT22;10951;59.656;9.666;2022-11-23T12:58:22;1.60;99.90
21580;DHT22;10951;59.656;9.666;2022-11-23T13:03:34;1.60;99.90
21580;DHT22;10951;59.656;9.666;2022-11-23T13:06:19;1.60;99.90
21580;DHT22;10951;59.656;9.666;2022-11-23T13:14:09;1.50;99.90
21580;DHT22;10951;59.656;9.666;2022-11-23T13:16:54;1.60;99.90
21580;DHT22;10951;59.656;9.666;2022-11-23T13:19:33;1.60;99.90
21580;DHT22;10951;59.656;9.666;2022-11-23T13:22:04;1.60;99.90
21580;DHT22;10951;59.656;9.666;2022-11-23T13:24:34;1.60;99.90
21580;DHT22;10951;59.656;9.666;2022-11-23T13:35:01;1.50;99.90
21580;DHT22;10951;59.656;9.666;2022-11-23T13:37:28;1.50;99.90
21580;DHT22;10951;59.656;9.666;2022-11-23T13:42:26;1.50;99.90
21580;DHT22;10951;59.656;9.666;2022-11-23T13:45:15;1.50;99.90
21580;DHT22;10951;59.656;9.666;2022-11-23T13:50:37;1.50;99.90
21580;DHT22;10951;59.656;9.666;2022-11-23T13:53:33;1.40;99.90
21580;DHT22;10951;59.656;9.666;2022-11-23T13:56:24;1.50;99.90
21580;DHT22;10951;59.656;9.666;2022-11-23T14:04:42;1.50;99.90
21580;DHT22;10951;59.656;9.666;2022-11-23T14:10:19;1.40;99.90
21580;DHT22;10951;59.656;9.666;2022-11-23T14:13:08;1.40;99.90
21580;DHT22;10951;59.656;9.666;2022-11-23T14:15:44;1.40;99.90
21580;DHT22;10951;59.656;9.666;2022-11-23T14:24:03;1.50;99.90
21580;DHT22;10951;59.656;9.666;2022-11-23T14:43:23;1.40;99.90
21580;DHT22;10951;59.656;9.666;2022-11-23T14:45:52;1.40;99.90
21580;DHT22;10951;59.656;9.666;2022-11-23T14:48:34;1.40;99.90
21580;DHT22;10951;59.656;9.666;2022-11-23T14:51:15;1.40;99.90
21580;DHT22;10951;59.656;9.666;2022-11-23T14:53:49;1.40;99.90
21580;DHT22;10951;59.656;9.666;2022-11-23T14:56:34;1.40;99.90
21580;DHT22;10951;59.656;9.666;2022-11-23T14:59:07;1.40;99.90
21580;DHT22;10951;59.656;9.666;2022-11-23T15:01:36;1.40;99.90
21580;DHT22;10951;59.656;9.666;2022-11-23T15:04:09;1.30;99.90
21580;DHT22;10951;59.656;9.666;2022-11-23T15:06:40;1.30;99.90
21580;DHT22;10951;59.656;9.666;2022-11-23T15:09:24;1.30;99.90
21580;DHT22;10951;59.656;9.666;2022-11-23T15:12:07;1.30;99.90
21580;DHT22;10951;59.656;9.666;2022-11-23T15:14:34;1.30;99.90
21580;DHT22;10951;59.656;9.666;2022-11-23T15:17:16;1.30;99.90
21580;DHT22;10951;59.656;9.666;2022-11-23T15:19:58;1.30;99.90
21580;DHT22;10951;59.656;9.666;2022-11-23T15:22:27;1.30;99.90
21580;DHT22;10951;59.656;9.666;2022-11-23T15:24:54;1.30;99.90
21580;DHT22;10951;59.656;9.666;2022-11-23T15:27:31;1.20;99.90
21580;DHT22;10951;59.656;9.666;2022-11-23T15:29:59;1.20;99.90
21580;DHT22;10951;59.656;9.666;2022-11-23T15:32:31;1.10;99.90
21580;DHT22;10951;59.656;9.666;2022-11-23T15:35:06;1.10;99.90
21580;DHT22;10951;59.656;9.666;2022-11-23T15:37:42;1.10;99.90
21580;DHT22;10951;59.656;9.666;2022-11-23T15:40:13;1.10;99.90
21580;DHT22;10951;59.656;9.666;2022-11-23T15:42:41;1.10;99.90
21580;DHT22;10951;59.656;9.666;2022-11-23T15:50:58;1.10;99.90
21580;DHT22;10951;59.656;9.666;2022-11-23T15:53:47;1.10;99.90
21580;DHT22;10951;59.656;9.666;2022-11-23T15:56:30;1.20;99.90
21580;DHT22;10951;59.656;9.666;2022-11-23T15:58:59;1.10;99.90
21580;DHT22;10951;59.656;9.666;2022-11-23T16:01:28;1.10;99.90
21580;DHT22;10951;59.656;9.666;2022-11-23T16:04:00;1.10;99.90
21580;DHT22;10951;59.656;9.666;2022-11-23T16:06:35;1.10;99.90
21580;DHT22;10951;59.656;9.666;2022-11-23T16:09:32;1.10;99.90
21580;DHT22;10951;59.656;9.666;2022-11-23T16:12:21;1.10;99.90
21580;DHT22;10951;59.656;9.666;2022-11-23T16:14:50;1.10;99.90
21580;DHT22;10951;59.656;9.666;2022-11-23T16:19:47;1.10;99.90
21580;DHT22;10951;59.656;9.666;2022-11-23T16:22:33;1.10;99.90
21580;DHT22;10951;59.656;9.666;2022-11-23T16:25:31;1.20;99.90
21580;DHT22;10951;59.656;9.666;2022-11-23T16:28:00;1.20;99.90
21580;DHT22;10951;59.656;9.666;2022-11-23T16:30:47;1.20;99.90
21580;DHT22;10951;59.656;9.666;2022-11-23T16:33:17;1.10;99.90
21580;DHT22;10951;59.656;9.666;2022-11-23T16:35:44;1.10;99.90
21580;DHT22;10951;59.656;9.666;2022-11-23T16:38:11;1.10;99.90
21580;DHT22;10951;59.656;9.666;2022-11-23T16:40:42;1.10;99.90
21580;DHT22;10951;59.656;9.666;2022-11-23T16:43:10;1.10;99.90
21580;DHT22;10951;59.656;9.666;2022-11-23T16:45:39;1.10;99.90
21580;DHT22;10951;59.656;9.666;2022-11-23T16:50:55;1.20;99.90
21580;DHT22;10951;59.656;9.666;2022-11-23T16:53:23;1.20;99.90
21580;DHT22;10951;59.656;9.666;2022-11-23T16:55:53;1.10;99.90
21580;DHT22;10951;59.656;9.666;2022-11-23T16:58:21;1.10;99.90
21580;DHT22;10951;59.656;9.666;2022-11-23T17:00:48;1.20;99.90
21580;DHT22;10951;59.656;9.666;2022-11-23T17:03:17;1.20;99.90
21580;DHT22;10951;59.656;9.666;2022-11-23T17:05:45;1.20;99.90
21580;DHT22;10951;59.656;9.666;2022-11-23T17:08:12;1.20;99.90
21580;DHT22;10951;59.656;9.666;2022-11-23T17:10:47;1.20;99.90
21580;DHT22;10951;59.656;9.666;2022-11-23T17:13:18;1.20;99.90
21580;DHT22;10951;59.656;9.666;2022-11-23T17:15:46;1.20;99.90
21580;DHT22;10951;59.656;9.666;2022-11-23T17:18:14;1.20;99.90
21580;DHT22;10951;59.656;9.666;2022-11-23T17:20:41;1.20;99.90
21580;DHT22;10951;59.656;9.666;2022-11-23T17:23:08;1.20;99.90
21580;DHT22;10951;59.656;9.666;2022-11-23T17:25:36;1.20;99.90
21580;DHT22;10951;59.656;9.666;2022-11-23T17:28:04;1.20;99.90
21580;DHT22;10951;59.656;9.666;2022-11-23T17:30:31;1.20;99.90
21580;DHT22;10951;59.656;9.666;2022-11-23T17:32:58;1.20;99.90
21580;DHT22;10951;59.656;9.666;2022-11-23T17:35:26;1.20;99.90
21580;DHT22;10951;59.656;9.666;2022-11-23T17:37:53;1.30;99.90
21580;DHT22;10951;59.656;9.666;2022-11-23T17:40:21;1.30;99.90
21580;DHT22;10951;59.656;9.666;2022-11-23T17:42:49;1.30;99.90
21580;DHT22;10951;59.656;9.666;2022-11-23T17:45:16;1.30;99.90
21580;DHT22;10951;59.656;9.666;2022-11-23T17:47:43;1.30;99.90
21580;DHT22;10951;59.656;9.666;2022-11-23T17:50:16;1.30;99.90
21580;DHT22;10951;59.656;9.666;2022-11-23T17:52:46;1.30;99.90
21580;DHT22;10951;59.656;9.666;2022-11-23T17:55:14;1.30;99.90
21580;DHT22;10951;59.656;9.666;2022-11-23T17:57:41;1.30;99.90
21580;DHT22;10951;59.656;9.666;2022-11-23T18:00:18;1.30;99.90
21580;DHT22;10951;59.656;9.666;2022-11-23T18:02:45;1.30;99.90
21580;DHT22;10951;59.656;9.666;2022-11-23T18:05:13;1.30;99.90
21580;DHT22;10951;59.656;9.666;2022-11-23T18:07:47;1.30;99.90
21580;DHT22;10951;59.656;9.666;2022-11-23T18:10:15;1.30;99.90
21580;DHT22;10951;59.656;9.666;2022-11-23T18:12:42;1.30;99.90
21580;DHT22;10951;59.656;9.666;2022-11-23T18:15:10;1.30;99.90
21580;DHT22;10951;59.656;9.666;2022-11-23T18:17:39;1.20;99.90
21580;DHT22;10951;59.656;9.666;2022-11-23T18:20:07;1.20;99.90
21580;DHT22;10951;59.656;9.666;2022-11-23T18:22:35;1.30;99.90
21580;DHT22;10951;59.656;9.666;2022-11-23T18:25:02;1.30;99.90
21580;DHT22;10951;59.656;9.666;2022-11-23T18:27:29;1.20;99.90
21580;DHT22;10951;59.656;9.666;2022-11-23T18:29:56;1.30;99.90
21580;DHT22;10951;59.656;9.666;2022-11-23T18:32:23;1.30;99.90
21580;DHT22;10951;59.656;9.666;2022-11-23T18:34:50;1.30;99.90
21580;DHT22;10951;59.656;9.666;2022-11-23T18:37:17;1.30;99.90
21580;DHT22;10951;59.656;9.666;2022-11-23T18:39:44;1.30;99.90
21580;DHT22;10951;59.656;9.666;2022-11-23T18:42:11;1.40;99.90